Flight Track Log - Related Links

Times and Time Zones

All times are in EDT time to prevent confusion due to time zone crossing. See the DAL268 flight status page for this flight to view local times or setup timezone preferences in your user account.

Time Position Orientation Groundspeed Altitude Reporting Facility
EDT Latitude Longitude Course Direction KTS MPH feet Rate Location/Type
Wed 11:43:35 PM 40.6370 -73.7790 North 10 12  Level FlightAware ADS-B
Wed 11:44:04 PM 40.6380 -73.7790 360° North 11 13 13 Level FlightAware ADS-B
Wed 11:46:00 PM 40.5987 -73.4446 108° East  Level FlightAware Approximate
Wed 11:47:00 PM 40.5833 -73.2685 90° East  Level FlightAware Approximate
Wed 11:48:00 PM 40.5543 -73.0969 97° East  Level FlightAware Approximate
Wed 11:49:00 PM 40.5667 -72.9246 90° East  Level FlightAware Approximate
Wed 11:49:06 PM 40.6370 -73.7790 90° East 18 21  Level FlightAware ADS-B
Wed 11:50:13 PM 40.6350 -73.7780 159° South 11 13 15 Level FlightAware ADS-B
Wed 11:51:13 PM 40.6340 -73.7780 180° South 31 36 15 Level FlightAware ADS-B
Wed 11:51:53 PM 40.6340 -73.7810 270° West 33 38 16 Level FlightAware ADS-B
Wed 11:52:35 PM 40.6350 -73.7850 288° West 16 18 16 Level FlightAware ADS-B
Wed 11:53:15 PM 40.6370 -73.7880 311° West 18 21 16 Level FlightAware ADS-B
Wed 11:54:15 PM 40.6390 -73.7940 294° West 18 21 17 Level FlightAware ADS-B
Wed 11:54:59 PM 40.6420 -73.7960 333° Northwest 33 38 17 Level FlightAware ADS-B
Wed 11:55:39 PM 40.6440 -73.7960 360° North 32 37 17 Level FlightAware ADS-B
Wed 11:56:45 PM 40.6490 -73.7980 343° North 18 21 18 Level FlightAware ADS-B
Wed 11:57:19 PM 40.6520 -73.7970 14° North 17 20 18 Level FlightAware ADS-B
Wed 11:57:46 PM 40.6530 -73.7940 66° East 19 22 18 Level FlightAware ADS-B
Wed 11:58:45 PM 40.6530 -73.7870 90° East 16 18 19 Level FlightAware ADS-B
Thu 12:01:00 AM 40.5852 -73.3906 108° East  Level FlightAware Approximate
Thu 12:02:00 AM 40.5653 -73.2185 97° East  Level FlightAware Approximate
Thu 12:03:00 AM 40.5500 -73.0405 90° East  Level FlightAware Approximate
Thu 12:03:49 AM 40.6540 -73.7850 90° East 25 29  Level FlightAware ADS-B
Thu 12:04:17 AM 40.6570 -73.7850 360° North 25 29 22 Level FlightAware ADS-B
Thu 12:04:45 AM 40.6560 -73.7890 252° West 15 17 22 Level FlightAware ADS-B
Thu 12:05:13 AM 40.6570 -73.7900 323° Northwest 29 33 23 Level FlightAware ADS-B
Thu 12:05:39 AM 40.6600 -73.7900 360° North 29 33 23 Level FlightAware ADS-B
Thu 12:06:07 AM 40.6580 -73.7870 131° Southeast 16 18 23 Level FlightAware ADS-B
Thu 12:07:39 AM 40.6590 -73.7810 78° East 33 38 24 Level FlightAware ADS-B
Thu 12:10:00 AM 40.5833 -73.3731 90° East  Level FlightAware Approximate
Thu 12:11:00 AM 40.5637 -73.2007 97° East  Level FlightAware Approximate
Thu 12:12:00 AM 40.5500 -73.0225 90° East  Level FlightAware Approximate
Thu 12:13:00 AM 40.5825 -72.8532 72° East  Level FlightAware Approximate
Thu 12:14:00 AM 40.6333 -72.6879 90° East  Level FlightAware Approximate
Thu 12:15:00 AM 40.6712 -72.5176 69° East  Level FlightAware Approximate
Thu 12:16:00 AM 40.7139 -72.3474 75° East  Level FlightAware Approximate
Thu 12:17:00 AM 40.7559 -72.1765 72° East  Level FlightAware Approximate
Thu 12:18:00 AM 40.7986 -72.0058 72° East  Level FlightAware Approximate
Thu 12:19:00 AM 40.8483 -71.8385 66° East  Level FlightAware Approximate
Thu 12:20:17 AM 40.6540 -73.7780 90° East 15 17  Level FlightAware ADS-B
Thu 12:21:16 AM 40.6530 -73.7770 143° Southeast 18 21 46 Level FlightAware ADS-B
Thu 12:21:38 AM 40.6530 -73.7760 90° East 16 18 49 Level FlightAware ADS-B
Thu 12:24:00 AM 40.5833 -73.3701 90° East  Level FlightAware Approximate
Thu 12:25:00 AM 40.5634 -73.1977 97° East  Level FlightAware Approximate
Thu 12:25:25 AM 40.6520 -73.7750 97° East 12 14  Level FlightAware ADS-B
Thu 12:26:12 AM 40.6520 -73.7740 90° East 13 15 69 Level FlightAware ADS-B
Thu 12:26:32 AM 40.6510 -73.7730 143° Southeast 13 15 75 Level FlightAware ADS-B
Thu 12:27:31 AM 40.6510 -73.7720 90° East 14 16 78 Level FlightAware ADS-B
Thu 12:28:13 AM 40.6500 -73.7710 143° Southeast 14 16 88 Level FlightAware ADS-B
Thu 12:28:53 AM 40.6500 -73.7700 90° East 13 15 96 Level FlightAware ADS-B
Thu 12:29:53 AM 40.6490 -73.7690 143° Southeast 2 2 106 Level FlightAware ADS-B
Thu 12:30:33 AM 40.6490 -73.7680 90° East 15 17 124 Level FlightAware ADS-B
Thu 12:31:15 AM 40.6490 -73.7670 90° East 11 13 141 Level FlightAware ADS-B
Thu 12:32:01 AM 40.6490 -73.7660 90° East 11 13 164 Level FlightAware ADS-B
Thu 12:33:55 AM 40.6490 -73.7650 108° East 21 24 200 Level FlightAware ADS-B
Thu 12:34:00 AM 40.5957 -73.4329 108° East  Level FlightAware Approximate
Thu 12:34:15 AM 40.6480 -73.7650 180° South 13 15  Level FlightAware ADS-B
Thu 12:34:57 AM 40.6390 -73.7720 211° Southwest 125 144 553 Level FlightAware ADS-B
Thu 12:35:31 AM 40.6150 -73.7910 211° Southwest 183 211 700 1,452 Climbing FlightAware ADS-B
Thu 12:35:59 AM 40.5950 -73.8070 211° Southwest 189 217 1,500 1,444 Climbing FlightAware ADS-B
Thu 12:36:25 AM 40.5730 -73.8210 206° Southwest 216 249 2,000 1,167 Climbing FlightAware ADS-B
Thu 12:36:35 AM 40.5630 -73.8230 189° South 224 258 2,200 955 Climbing FlightAware ADS-B
Thu 12:37:09 AM 40.5300 -73.8000 152° Southeast 254 292 2,700 960 Climbing FlightAware ADS-B
Thu 12:37:25 AM 40.5210 -73.7780 118° Southeast 268 308 3,000 1,171 Climbing FlightAware ADS-B
Thu 12:37:50 AM 40.5110 -73.7390 109° East 286 329 3,500 1,585 Climbing FlightAware ADS-B
Thu 12:38:18 AM 40.5012 -73.6894 105° East 300 345 4,400 2,000 Climbing FlightAware ADS-B
Thu 12:38:23 AM 40.4998 -73.6804 102° East 302 348 4,600 2,000 Climbing FlightAware ADS-B
Thu 12:38:27 AM 40.4992 -73.6730 96° East 304 350 4,700 1,714 Climbing FlightAware ADS-B
Thu 12:38:30 AM 40.4989 -73.6676 94° East 306 352 4,800 1,636 Climbing FlightAware ADS-B
Thu 12:38:38 AM 40.4990 -73.6525 89° East 308 354 5,000 1,000 Climbing FlightAware ADS-B
Thu 12:38:42 AM 40.4995 -73.6451 85° East 309 356 5,000 500 Level FlightAware ADS-B
Thu 12:38:50 AM 40.5011 -73.6302 82° East 310 357 5,100 250 Climbing FlightAware ADS-B
Thu 12:39:06 AM 40.5048 -73.6006 81° East 306 352 5,100  Level FlightAware ADS-B
Thu 12:39:21 AM 40.5081 -73.5733 81° East 305 351 5,100  Level FlightAware ADS-B
Thu 12:39:35 AM 40.5110 -73.5472 82° East 306 352 5,100  Level FlightAware ADS-B
Thu 12:39:40 AM 40.5126 -73.5383 77° East 303 349 5,100  Level FlightAware ADS-B
Thu 12:39:43 AM 40.5140 -73.5332 70° East 301 346 5,100  Level FlightAware ADS-B
Thu 12:39:46 AM 40.5163 -73.5266 65° Northeast 301 346 5,100  Level FlightAware ADS-B
Thu 12:39:50 AM 40.5184 -73.5217 61° Northeast 300 345 5,100  Level FlightAware ADS-B
Thu 12:39:55 AM 40.5227 -73.5144 52° Northeast 302 348 5,100  Level FlightAware ADS-B
Thu 12:40:12 AM 40.5385 -73.4909 48° Northeast 302 348 5,100  Level FlightAware ADS-B
Thu 12:41:31 AM 40.5890 -73.3630 62° Northeast 305 351 5,100 343 Level FlightAware ADS-B
Thu 12:41:57 AM 40.5940 -73.3150 82° East 311 358 5,700 1,674 Climbing FlightAware ADS-B
Thu 12:42:14 AM 40.5978 -73.2828 81° East 309 356 6,300 2,182 Climbing FlightAware ADS-B
Thu 12:42:30 AM 40.6015 -73.2525 81° East 316 364 6,900 2,129 Climbing FlightAware ADS-B
Thu 12:42:45 AM 40.6054 -73.2239 80° East 319 367 7,400 2,000 Climbing FlightAware ADS-B
Thu 12:43:03 AM 40.6103 -73.1895 79° East 322 371 8,000 2,000 Climbing FlightAware ADS-B
Thu 12:43:18 AM 40.6145 -73.1603 79° East 326 375 8,500 1,935 Climbing FlightAware ADS-B
Thu 12:43:34 AM 40.6191 -73.1288 79° East 330 380 9,000 1,935 Climbing FlightAware ADS-B
Thu 12:43:49 AM 40.6236 -73.0990 79° East 334 384 9,500 2,000 Climbing FlightAware ADS-B
Thu 12:44:04 AM 40.6277 -73.0690 80° East 336 387 10,000 1,404 Climbing FlightAware ADS-B
Thu 12:44:36 AM 40.6362 -73.0028 80° East 355 409 10,600 1,031 Climbing FlightAware ADS-B
Thu 12:45:08 AM 40.6456 -72.9320 80° East 382 440 11,100 968 Climbing FlightAware ADS-B
Thu 12:45:38 AM 40.6550 -72.8608 80° East 407 468 11,600 1,065 Climbing FlightAware ADS-B
Thu 12:46:10 AM 40.6659 -72.7803 80° East 429 494 12,200 1,688 Climbing FlightAware ADS-B
Thu 12:47:14 AM 40.6880 -72.6115 80° East 432 497 14,300 2,114 Climbing FlightAware ADS-B
Thu 12:47:55 AM 40.7200 -72.5090 68° East 448 516 15,900 2,074 Climbing FlightAware ADS-B
Thu 12:48:35 AM 40.7740 -72.4280 49° Northeast 454 522 17,100 1,976 Climbing FlightAware ADS-B
Thu 12:49:20 AM 40.8370 -72.3340 48° Northeast 452 520 18,700 1,902 Climbing FlightAware ADS-B
Thu 12:49:57 AM 40.8910 -72.2560 48° Northeast 464 534 19,700 1,519 Climbing FlightAware ADS-B
Thu 12:50:39 AM 40.9500 -72.1680 48° Northeast 475 547 20,700 759 Climbing FlightAware ADS-B
Thu 12:51:16 AM 40.9970 -72.1000 48° Northeast 475 547 20,700 1,690 Level FlightAware ADS-B
Thu 12:51:50 AM 41.0350 -71.9960 64° Northeast 487 560 22,700 1,704 Climbing FlightAware ADS-B
Thu 12:52:37 AM 41.0800 -71.8840 62° Northeast 488 562 23,000 212 Climbing FlightAware ADS-B
Thu 12:53:15 AM 41.1140 -71.7990 62° Northeast 488 562 23,000  Level FlightAware ADS-B
Thu 12:53:51 AM 41.1470 -71.7180 62° Northeast 488 562 23,000  Level FlightAware ADS-B
Thu 12:54:39 AM 41.1900 -71.6100 62° Northeast 488 562 23,000  Level FlightAware ADS-B
Thu 12:55:14 AM 41.2210 -71.5310 62° Northeast 488 562 23,000 5,094 Level FlightAware ADS-B
Thu 12:55:32 AM 41.3320 -71.4520 28° Northeast 505 581 27,500 5,048 Climbing FlightAware ADS-B
Thu 12:56:17 AM 41.4010 -71.3460 49° Northeast 508 585 28,300 1,333 Climbing FlightAware ADS-B
Thu 12:57:02 AM 41.4690 -71.2430 49° Northeast 497 572 29,500 1,650 Climbing FlightAware ADS-B
Thu 12:57:37 AM 41.5240 -71.1600 48° Northeast 490 564 30,500 1,125 Climbing FlightAware ADS-B
Thu 12:58:22 AM 41.5890 -71.0620 48° Northeast 492 566 31,000 353 Climbing FlightAware ADS-B
Thu 12:59:02 AM 41.6520 -70.9660 49° Northeast 489 563 31,000  Level FlightAware ADS-B
Thu 12:59:47 AM 41.7190 -70.8640 49° Northeast 488 562 31,000  Level FlightAware ADS-B
Thu 01:02:23 AM 41.9440 -70.5170 49° Northeast 487 560 31,000  Level FlightAware ADS-B
Thu 01:03:04 AM 42.0110 -70.4170 48° Northeast 487 560 31,000  Level FlightAware ADS-B
Thu 01:03:45 AM 42.0710 -70.3230 49° Northeast 481 554 31,000  Level FlightAware ADS-B
Thu 01:04:29 AM 42.1360 -70.2220 49° Northeast 487 560 31,000  Level FlightAware ADS-B
Thu 01:05:09 AM 42.1960 -70.1280 49° Northeast 489 563 31,000  Level FlightAware ADS-B
Thu 01:05:54 AM 42.2620 -70.0240 49° Northeast 489 563 31,000  Level FlightAware ADS-B
Thu 01:06:34 AM 42.3230 -69.9290 49° Northeast 490 564 31,000  Level FlightAware ADS-B
Thu 01:07:19 AM 42.3880 -69.8270 49° Northeast 484 557 31,000  Level FlightAware ADS-B
Thu 01:07:59 AM 42.4450 -69.7360 50° Northeast 484 557 31,000  Level FlightAware ADS-B
Thu 01:08:42 AM 42.5090 -69.6360 49° Northeast 484 557 31,000  Level FlightAware ADS-B
Thu 01:09:17 AM 42.5520 -69.5680 49° Northeast 484 557 31,000  Level FlightAware ADS-B
Thu 01:10:04 AM 42.6290 -69.4440 50° Northeast 482 555 31,000  Level FlightAware ADS-B
Thu 01:10:44 AM 42.6870 -69.3510 50° Northeast 483 556 31,000  Level FlightAware ADS-B
Thu 01:11:29 AM 42.7520 -69.2460 50° Northeast 483 556 31,000  Level FlightAware ADS-B
Thu 01:12:14 AM 42.8200 -69.1370 50° Northeast 484 557 31,000  Level FlightAware ADS-B
Thu 01:12:54 AM 42.8770 -69.0450 50° Northeast 486 559 31,000  Level FlightAware ADS-B
Thu 01:14:04 AM 42.9770 -68.8840 50° Northeast 486 559 31,000  Level FlightAware ADS-B
Thu 01:15:26 AM 43.0770 -68.7200 50° Northeast 486 559 31,000  Level FlightAware ADS-B
Thu 01:16:04 AM 43.1240 -68.6430 50° Northeast 486 559 31,000  Level FlightAware ADS-B
Thu 01:16:52 AM 43.1830 -68.5470 50° Northeast 486 559 31,000  Level FlightAware ADS-B
Thu 01:17:28 AM 43.2270 -68.4750 50° Northeast 486 559 31,000  Level FlightAware ADS-B
Thu 01:18:18 AM 43.2890 -68.3740 50° Northeast 486 559 31,000  Level FlightAware ADS-B
Thu 01:18:53 AM 43.3320 -68.3040 50° Northeast 486 559 31,000  Level FlightAware ADS-B
Thu 01:19:40 AM 43.3890 -68.2090 50° Northeast 486 559 31,000  Level FlightAware ADS-B
Thu 01:20:19 AM 43.4370 -68.1300 50° Northeast 486 559 31,000  Level FlightAware ADS-B
Thu 01:21:06 AM 43.4950 -68.0360 50° Northeast 486 559 31,000  Level FlightAware ADS-B
Thu 01:21:40 AM 43.5370 -67.9670 50° Northeast 486 559 31,000  Level FlightAware ADS-B
Thu 01:22:28 AM 43.5960 -67.8700 50° Northeast 486 559 31,000  Level FlightAware ADS-B
Thu 01:23:04 AM 43.6400 -67.7970 50° Northeast 486 559 31,000  Level FlightAware ADS-B
Thu 01:26:48 AM 44.0870 -67.0160 51° Northeast 504 580 31,000  Level FlightAware ADS-B
Thu 01:27:28 AM 44.1360 -66.9320 51° Northeast 504 580 31,000  Level FlightAware ADS-B
Thu 01:28:12 AM 44.2040 -66.8140 51° Northeast 506 582 31,000  Level FlightAware ADS-B
Thu 01:28:48 AM 44.2490 -66.7360 51° Northeast 506 582 31,000  Level FlightAware ADS-B
Thu 01:29:29 AM 44.3170 -66.6170 51° Northeast 511 588 31,000  Level FlightAware ADS-B
Thu 01:29:56 AM 44.3630 -66.5340 52° Northeast 515 593 31,000  Level FlightAware ADS-B
Thu 01:32:15 AM 44.5600 -66.1830 52° Northeast 525 604 31,000  Level FlightAware ADS-B
Thu 01:33:04 AM 44.6440 -66.0350 51° Northeast 533 613 31,000  Level FlightAware ADS-B
Thu 01:33:42 AM 44.7010 -65.9300 53° Northeast 538 619 31,000  Level FlightAware ADS-B
Thu 01:34:22 AM 44.7630 -65.8190 52° Northeast 543 625 31,000  Level FlightAware ADS-B
Thu 01:35:07 AM 44.8320 -65.6930 52° Northeast 548 631 31,000  Level FlightAware ADS-B
Thu 01:35:49 AM 44.8970 -65.5740 52° Northeast 550 633 31,000  Level FlightAware ADS-B
Thu 01:36:34 AM 44.9680 -65.4460 52° Northeast 554 638 31,000 71 Level FlightAware ADS-B
Thu 01:37:14 AM 45.0310 -65.3310 52° Northeast 557 641 31,100  Climbing FlightAware ADS-B
Thu 01:37:43 AM 45.0760 -65.2470 53° Northeast 559 643 31,000  Descending FlightAware ADS-B
Thu 01:38:21 AM 45.1350 -65.1400 52° Northeast 558 642 31,100  Climbing FlightAware ADS-B
Thu 01:39:04 AM 45.2030 -65.0120 53° Northeast 558 642 31,000 -69 Descending FlightAware ADS-B
Thu 01:39:48 AM 45.2730 -64.8830 52° Northeast 559 643 31,000 74 Level FlightAware ADS-B
Thu 01:40:25 AM 45.3290 -64.7780 53° Northeast 561 646 31,100  Climbing FlightAware ADS-B
Thu 01:41:14 AM 45.4070 -64.6310 53° Northeast 560 644 31,000 -67 Descending FlightAware ADS-B
Thu 01:41:54 AM 45.4700 -64.5130 53° Northeast 559 643 31,000  Level FlightAware ADS-B
Thu 01:42:36 AM 45.5320 -64.3920 54° Northeast 558 642 31,000  Level FlightAware ADS-B
Thu 01:43:20 AM 45.6000 -64.2630 53° Northeast 558 642 31,000  Level FlightAware ADS-B
Thu 01:44:09 AM 45.6700 -64.1290 53° Northeast 557 641 31,000  Level FlightAware ADS-B
Thu 01:44:57 AM 45.7330 -64.0090 53° Northeast 557 641 31,000  Level FlightAware ADS-B
Thu 01:47:14 AM 45.9240 -63.6430 53° Northeast 555 639 31,000  Level FlightAware ADS-B
Thu 01:47:50 AM 45.9710 -63.5520 53° Northeast 555 639 31,000  Level FlightAware ADS-B
Thu 01:48:39 AM 46.0360 -63.4290 53° Northeast 555 639 31,000  Level FlightAware ADS-B
Thu 01:49:17 AM 46.0850 -63.3340 53° Northeast 555 639 31,000  Level FlightAware ADS-B
Thu 01:50:03 AM 46.1460 -63.2180 53° Northeast 555 639 31,000  Level FlightAware ADS-B
Thu 01:50:42 AM 46.2730 -62.9480 56° Northeast 553 636 31,000 434 Level FlightAware ADS-B
Thu 01:51:26 AM 46.3390 -62.8150 54° Northeast 556 640 31,600 1,023 Climbing FlightAware ADS-B
Thu 01:52:10 AM 46.4050 -62.6830 54° Northeast 554 638 32,500 1,047 Climbing FlightAware ADS-B
Thu 01:52:52 AM 46.4680 -62.5530 55° Northeast 553 636 33,100 357 Climbing FlightAware ADS-B
Thu 01:53:34 AM 46.5300 -62.4260 55° Northeast 552 635 33,000 -63 Descending FlightAware ADS-B
Thu 01:54:28 AM 46.6110 -62.2630 54° Northeast 551 634 33,000  Level FlightAware ADS-B
Thu 01:55:10 AM 46.6720 -62.1370 55° Northeast 549 632 33,000  Level FlightAware ADS-B
Thu 01:55:55 AM 46.7360 -62.0030 55° Northeast 549 632 33,000 68 Level FlightAware ADS-B
Thu 01:56:38 AM 46.8010 -61.8700 54° Northeast 552 635 33,100  Climbing FlightAware ADS-B
Thu 01:57:20 AM 46.8620 -61.7420 55° Northeast 553 636 33,000 -79 Descending FlightAware ADS-B
Thu 01:57:54 AM 46.9110 -61.6410 55° Northeast 553 636 33,000  Level FlightAware ADS-B
Thu 01:58:40 AM 46.9790 -61.4960 55° Northeast 552 635 33,000  Level FlightAware ADS-B
Thu 01:59:22 AM 47.0410 -61.3670 55° Northeast 552 635 33,000  Level FlightAware ADS-B
Thu 02:00:07 AM 47.0960 -61.2470 56° Northeast 550 633 33,000  Level FlightAware ADS-B
Thu 02:00:46 AM 47.1610 -61.1080 55° Northeast 550 633 33,000  Level FlightAware ADS-B
Thu 02:01:22 AM 47.2130 -60.9980 55° Northeast 549 632 33,000  Level FlightAware ADS-B
Thu 02:02:41 AM 47.3190 -60.7720 55° Northeast 550 633 33,000  Level FlightAware ADS-B
Thu 02:03:18 AM 47.3650 -60.6760 55° Northeast 550 633 33,000  Level FlightAware ADS-B
Thu 02:04:07 AM 47.4260 -60.5470 55° Northeast 550 633 33,000  Level FlightAware ADS-B
Thu 02:04:42 AM 47.4690 -60.4560 55° Northeast 550 633 33,000  Level FlightAware ADS-B
Thu 02:05:42 AM 47.5440 -60.2980 55° Northeast 550 633 33,000  Level FlightAware ADS-B
Thu 02:06:19 AM 47.5900 -60.2010 55° Northeast 550 633 33,000  Level FlightAware ADS-B
Thu 02:07:08 AM 47.6500 -60.0720 55° Northeast 550 633 33,000  Level FlightAware ADS-B
Thu 02:07:45 AM 47.6960 -59.9750 55° Northeast 550 633 33,000  Level FlightAware ADS-B
Thu 02:08:32 AM 47.7550 -59.8510 55° Northeast 550 633 33,000  Level FlightAware ADS-B
Thu 02:08:57 AM 47.7860 -59.7850 55° Northeast 550 633 33,000  Level FlightAware ADS-B
Thu 02:09:40 AM 47.9210 -59.4340 60° Northeast 556 640 33,000  Level FlightAware ADS-B
Thu 02:10:20 AM 47.9730 -59.3150 57° Northeast 557 641 33,000  Level FlightAware ADS-B
Thu 02:11:00 AM 48.0330 -59.1770 57° Northeast 557 641 33,000  Level FlightAware ADS-B
Thu 02:11:45 AM 48.0960 -59.0310 57° Northeast 557 641 33,000  Level FlightAware ADS-B
Thu 02:12:30 AM 48.1600 -58.8860 56° Northeast 557 641 33,000  Level FlightAware ADS-B
Thu 02:13:25 AM 48.2350 -58.7100 57° Northeast 557 641 33,000 63 Level FlightAware ADS-B
Thu 02:14:05 AM 48.2930 -58.5740 57° Northeast 557 641 33,100  Climbing FlightAware ADS-B
Thu 02:14:41 AM 48.3410 -58.4600 58° Northeast 557 641 33,000 -50 Descending FlightAware ADS-B
Thu 02:16:06 AM 48.4560 -58.1830 58° Northeast 558 642 33,000  Level FlightAware ADS-B
Thu 02:16:50 AM 48.5090 -58.0330 62° Northeast 559 643 33,000  Level FlightAware ADS-B
Thu 02:17:35 AM 48.5650 -57.8740 62° Northeast 560 644 33,000  Level FlightAware ADS-B
Thu 02:18:15 AM 48.6150 -57.7330 62° Northeast 561 646 33,000  Level FlightAware ADS-B
Thu 02:19:00 AM 48.6680 -57.5850 61° Northeast 560 644 33,000  Level FlightAware ADS-B
Thu 02:19:40 AM 48.7190 -57.4480 61° Northeast 558 642 33,000  Level FlightAware ADS-B
Thu 02:20:20 AM 48.7700 -57.3030 62° Northeast 559 643 33,000  Level FlightAware ADS-B
Thu 02:21:05 AM 48.8230 -57.1510 62° Northeast 561 646 33,000  Level FlightAware ADS-B
Thu 02:21:45 AM 48.8730 -57.0080 62° Northeast 563 648 33,000  Level FlightAware ADS-B
Thu 02:22:30 AM 48.9280 -56.8510 62° Northeast 564 649 33,000  Level FlightAware ADS-B
Thu 02:23:10 AM 48.9770 -56.7100 62° Northeast 564 649 33,000  Level FlightAware ADS-B
Thu 02:23:55 AM 49.0290 -56.5590 62° Northeast 565 650 33,000  Level FlightAware ADS-B
Thu 02:24:35 AM 49.0790 -56.4150 62° Northeast 565 650 33,000  Level FlightAware ADS-B
Thu 02:25:15 AM 49.1280 -56.2700 63° Northeast 567 652 33,000  Level FlightAware ADS-B
Thu 02:26:00 AM 49.1830 -56.1090 62° Northeast 570 656 33,000  Level FlightAware ADS-B
Thu 02:26:40 AM 49.2300 -55.9690 63° Northeast 571 657 33,000  Level FlightAware ADS-B
Thu 02:27:25 AM 49.2850 -55.8040 63° Northeast 572 658 33,000 71 Level FlightAware ADS-B
Thu 02:28:05 AM 49.3320 -55.6630 63° Northeast 573 659 33,100  Climbing FlightAware ADS-B
Thu 02:28:46 AM 49.3810 -55.5140 63° Northeast 572 658 33,000 -71 Descending FlightAware ADS-B
Thu 02:29:30 AM 49.4340 -55.3520 63° Northeast 572 658 33,000  Level FlightAware ADS-B
Thu 02:31:00 AM 49.5410 -55.0250 63° Northeast 572 658 33,000  Level FlightAware ADS-B
Thu 02:31:40 AM 49.5880 -54.8790 64° Northeast 574 661 33,000  Level FlightAware ADS-B
Thu 02:32:25 AM 49.6410 -54.7130 64° Northeast 576 663 33,000  Level FlightAware ADS-B
Thu 02:33:10 AM 49.6930 -54.5470 64° Northeast 576 663 33,000  Level FlightAware ADS-B
Thu 02:33:50 AM 49.7390 -54.4030 64° Northeast 577 664 33,000  Level FlightAware ADS-B
Thu 02:34:30 AM 49.7860 -54.2510 64° Northeast 577 664 33,000  Level FlightAware ADS-B
Thu 02:35:25 AM 49.8490 -54.0460 64° Northeast 576 663 33,000  Level FlightAware ADS-B
Thu 02:36:10 AM 49.9000 -53.8830 64° Northeast 576 663 33,000  Level FlightAware ADS-B
Thu 02:36:50 AM 49.9470 -53.7290 65° Northeast 577 664 33,000  Level FlightAware ADS-B
Thu 02:37:30 AM 49.9920 -53.5830 64° Northeast 578 665 33,000  Level FlightAware ADS-B
Thu 02:38:10 AM 50.0370 -53.4320 65° Northeast 579 666 33,000  Level FlightAware ADS-B
Thu 02:38:55 AM 50.0890 -53.2590 65° Northeast 581 669 33,000  Level FlightAware ADS-B
Thu 02:39:40 AM 50.1400 -53.0880 65° Northeast 581 669 33,000  Level FlightAware ADS-B
Thu 02:40:15 AM 50.1770 -52.9630 65° Northeast 581 669 33,000  Level FlightAware ADS-B
Thu 02:41:00 AM 50.2290 -52.7880 65° Northeast 581 669 33,000  Level FlightAware ADS-B
Thu 02:41:45 AM 50.2760 -52.6240 66° East 580 667 33,000  Level FlightAware ADS-B
Thu 02:42:25 AM 50.3230 -52.4640 65° Northeast 580 667 33,000  Level FlightAware ADS-B
Thu 02:43:07 AM 50.3600 -52.3400 65° Northeast 580 667 33,000  Level FlightAware ADS-B
Thu 02:43:45 AM 50.3970 -52.2170 65° Northeast 580 667 33,000  Level FlightAware ADS-B
Thu 02:44:33 AM 50.4430 -52.0610 65° Northeast 580 667 33,000  Level FlightAware ADS-B
Thu 02:45:09 AM 50.4780 -51.9450 65° Northeast 580 667 33,000  Level FlightAware ADS-B
Thu 02:45:55 AM 50.5220 -51.7950 65° Northeast 580 667 33,000  Level FlightAware ADS-B
Thu 02:46:34 AM 50.5600 -51.6680 65° Northeast 580 667 33,000  Level FlightAware ADS-B
Thu 02:47:23 AM 50.6070 -51.5090 65° Northeast 580 667 33,000  Level FlightAware ADS-B
Thu 02:47:59 AM 50.6420 -51.3910 65° Northeast 580 667 33,000  Level FlightAware ADS-B
Thu 02:48:47 AM 50.6880 -51.2350 65° Northeast 580 667 33,000  Level FlightAware ADS-B
Thu 02:49:23 AM 50.7230 -51.1170 65° Northeast 580 667 33,000  Level FlightAware ADS-B
Thu 02:50:12 AM 50.7700 -50.9570 65° Northeast 580 667 33,000  Level FlightAware ADS-B
Thu 02:50:46 AM 50.8020 -50.8460 65° Northeast 580 667 33,000  Level FlightAware ADS-B
Thu 02:51:35 AM 50.8500 -50.6860 65° Northeast 580 667 33,000  Level FlightAware ADS-B
Thu 02:52:11 AM 50.8840 -50.5680 65° Northeast 580 667 33,000  Level FlightAware ADS-B
Thu 02:52:45 AM 50.9833 -50.0167 65° Northeast 580 667 33,000  Level Gander Center
Thu 02:53:15 AM 51.0000 -49.8833 79° East 580 667 33,000  Level Gander Center
Thu 02:54:15 AM 51.0667 -49.6500 65° Northeast 590 679 33,000  Level Gander Center
Thu 02:54:45 AM 51.1000 -49.5333 65° Northeast 590 679 33,000  Level Gander Center
Thu 02:55:45 AM 51.1500 -49.2833 72° East 590 679 33,000  Level Gander Center
Thu 02:57:00 AM 51.2214 -49.0113 67° East  Level FlightAware Approximate
Thu 03:04:00 AM 51.5946 -47.4639 70° East  Level FlightAware Approximate
Thu 03:05:00 AM 51.6437 -47.2393 70° East  Level FlightAware Approximate
Thu 03:06:00 AM 51.6925 -47.0143 71° East  Level FlightAware Approximate
Thu 03:07:00 AM 51.7408 -46.7887 71° East  Level FlightAware Approximate
Thu 03:08:00 AM 51.7887 -46.5627 71° East  Level FlightAware Approximate
Thu 03:09:00 AM 51.8363 -46.3363 71° East  Level FlightAware Approximate
Thu 03:10:00 AM 51.8848 -46.1101 71° East  Level FlightAware Approximate
Thu 03:11:00 AM 51.9329 -45.8835 71° East  Level FlightAware Approximate
Thu 03:12:00 AM 51.9806 -45.6564 71° East  Level FlightAware Approximate
Thu 03:13:00 AM 52.0278 -45.4288 71° East  Level FlightAware Approximate
Thu 03:14:00 AM 52.0746 -45.2007 71° East  Level FlightAware Approximate
Thu 03:15:00 AM 52.1210 -44.9722 72° East  Level FlightAware Approximate
Thu 03:16:00 AM 52.1669 -44.7431 72° East  Level FlightAware Approximate
Thu 03:17:00 AM 52.2123 -44.5136 72° East  Level FlightAware Approximate
Thu 03:18:00 AM 52.2574 -44.2837 72° East  Level FlightAware Approximate
Thu 03:19:00 AM 52.3019 -44.0532 72° East  Level FlightAware Approximate
Thu 03:20:00 AM 52.3461 -43.8224 73° East  Level FlightAware Approximate
Thu 03:21:00 AM 52.3897 -43.5910 73° East  Level FlightAware Approximate
Thu 03:22:00 AM 52.4329 -43.3592 73° East  Level FlightAware Approximate
Thu 03:23:00 AM 52.4757 -43.1269 73° East  Level FlightAware Approximate
Thu 03:24:00 AM 52.5180 -42.8942 73° East  Level FlightAware Approximate
Thu 03:25:00 AM 52.5599 -42.6611 73° East  Level FlightAware Approximate
Thu 03:26:00 AM 52.6013 -42.4275 74° East  Level FlightAware Approximate
Thu 03:27:00 AM 52.6422 -42.1934 74° East  Level FlightAware Approximate
Thu 03:28:00 AM 52.6827 -41.9590 74° East  Level FlightAware Approximate
Thu 03:29:00 AM 52.7227 -41.7241 74° East  Level FlightAware Approximate
Thu 03:30:00 AM 52.7622 -41.4887 74° East  Level FlightAware Approximate
Thu 03:31:00 AM 52.8013 -41.2530 75° East  Level FlightAware Approximate
Thu 03:32:00 AM 52.8399 -41.0168 75° East  Level FlightAware Approximate
Thu 03:33:00 AM 52.8780 -40.7802 75° East  Level FlightAware Approximate
Thu 03:34:00 AM 52.9157 -40.5432 75° East  Level FlightAware Approximate
Thu 03:35:00 AM 52.9529 -40.3058 75° East  Level FlightAware Approximate
Thu 03:36:00 AM 52.9896 -40.0679 76° East  Level FlightAware Approximate
Thu 03:37:00 AM 53.0246 -39.8292 76° East  Level FlightAware Approximate
Thu 03:38:00 AM 53.0587 -39.5899 77° East  Level FlightAware Approximate
Thu 03:39:00 AM 53.0922 -39.3502 77° East  Level FlightAware Approximate
Thu 03:40:00 AM 53.1253 -39.1101 77° East  Level FlightAware Approximate
Thu 03:41:00 AM 53.1579 -38.8697 77° East  Level FlightAware Approximate
Thu 03:42:00 AM 53.1900 -38.6289 77° East  Level FlightAware Approximate
Thu 03:43:00 AM 53.2216 -38.3878 78° East  Level FlightAware Approximate
Thu 03:44:00 AM 53.2528 -38.1463 78° East  Level FlightAware Approximate
Thu 03:45:00 AM 53.2834 -37.9044 78° East  Level FlightAware Approximate
Thu 03:46:00 AM 53.3136 -37.6622 78° East  Level FlightAware Approximate
Thu 03:47:00 AM 53.3432 -37.4197 78° East  Level FlightAware Approximate
Thu 03:48:00 AM 53.3724 -37.1768 79° East  Level FlightAware Approximate
Thu 03:49:00 AM 53.4011 -36.9336 79° East  Level FlightAware Approximate
Thu 03:50:00 AM 53.4293 -36.6901 79° East  Level FlightAware Approximate
Thu 03:51:00 AM 53.4570 -36.4462 79° East  Level FlightAware Approximate
Thu 03:52:00 AM 53.4841 -36.2021 79° East  Level FlightAware Approximate
Thu 03:53:00 AM 53.5108 -35.9576 80° East  Level FlightAware Approximate
Thu 03:54:00 AM 53.5370 -35.7128 80° East  Level FlightAware Approximate
Thu 03:55:00 AM 53.5627 -35.4677 80° East  Level FlightAware Approximate
Thu 03:56:00 AM 53.5879 -35.2224 80° East  Level FlightAware Approximate
Thu 03:57:00 AM 53.6126 -34.9767 80° East  Level FlightAware Approximate
Thu 03:58:00 AM 53.6368 -34.7308 80° East  Level FlightAware Approximate
Thu 03:59:00 AM 53.6605 -34.4845 81° East  Level FlightAware Approximate
Thu 04:00:00 AM 53.6836 -34.2380 81° East  Level FlightAware Approximate
Thu 04:01:00 AM 53.7063 -33.9912 81° East  Level FlightAware Approximate
Thu 04:02:00 AM 53.7285 -33.7442 81° East  Level FlightAware Approximate
Thu 04:03:00 AM 53.7501 -33.4969 81° East  Level FlightAware Approximate
Thu 04:04:00 AM 53.7713 -33.2494 82° East  Level FlightAware Approximate
Thu 04:05:00 AM 53.7919 -33.0016 82° East  Level FlightAware Approximate
Thu 04:06:00 AM 53.8120 -32.7536 82° East  Level FlightAware Approximate
Thu 04:07:00 AM 53.8316 -32.5053 82° East  Level FlightAware Approximate
Thu 04:08:00 AM 53.8507 -32.2568 82° East  Level FlightAware Approximate
Thu 04:09:00 AM 53.8693 -32.0081 83° East  Level FlightAware Approximate
Thu 04:10:00 AM 53.8874 -31.7592 83° East  Level FlightAware Approximate
Thu 04:11:00 AM 53.9049 -31.5100 83° East  Level FlightAware Approximate
Thu 04:12:00 AM 53.9220 -31.2607 83° East  Level FlightAware Approximate
Thu 04:13:00 AM 53.9385 -31.0111 83° East  Level FlightAware Approximate
Thu 04:14:00 AM 53.9545 -30.7614 84° East  Level FlightAware Approximate
Thu 04:15:00 AM 53.9700 -30.5114 84° East  Level FlightAware Approximate
Thu 04:16:00 AM 53.9849 -30.2613 84° East  Level FlightAware Approximate
Thu 04:17:00 AM 53.9994 -30.0110 84° East  Level FlightAware Approximate
Thu 04:18:00 AM 54.0097 -29.7600 86° East  Level FlightAware Approximate
Thu 04:19:00 AM 54.0194 -29.5089 86° East  Level FlightAware Approximate
Thu 04:20:00 AM 54.0286 -29.2577 86° East  Level FlightAware Approximate
Thu 04:21:00 AM 54.0372 -29.0064 87° East  Level FlightAware Approximate
Thu 04:22:00 AM 54.0453 -28.7550 87° East  Level FlightAware Approximate
Thu 04:23:00 AM 54.0529 -28.5035 87° East  Level FlightAware Approximate
Thu 04:24:00 AM 54.0600 -28.2519 87° East  Level FlightAware Approximate
Thu 04:25:00 AM 54.0665 -28.0002 87° East  Level FlightAware Approximate
Thu 04:26:00 AM 54.0725 -27.7484 88° East  Level FlightAware Approximate
Thu 04:27:00 AM 54.0780 -27.4966 88° East  Level FlightAware Approximate
Thu 04:28:00 AM 54.0829 -27.2447 88° East  Level FlightAware Approximate
Thu 04:29:00 AM 54.0873 -26.9928 88° East  Level FlightAware Approximate
Thu 04:30:00 AM 54.0913 -26.7408 88° East  Level FlightAware Approximate
Thu 04:31:00 AM 54.0946 -26.4887 89° East  Level FlightAware Approximate
Thu 04:32:00 AM 54.0975 -26.2366 89° East  Level FlightAware Approximate
Thu 04:33:00 AM 54.0998 -25.9845 89° East  Level FlightAware Approximate
Thu 04:34:00 AM 54.1016 -25.7324 89° East  Level FlightAware Approximate
Thu 04:35:00 AM 54.1029 -25.4802 89° East  Level FlightAware Approximate
Thu 04:36:00 AM 54.1036 -25.2281 90° East  Level FlightAware Approximate
Thu 04:37:00 AM 54.1038 -24.9759 90° East  Level FlightAware Approximate
Thu 04:38:00 AM 54.1035 -24.7237 90° East  Level FlightAware Approximate
Thu 04:39:00 AM 54.1027 -24.4715 90° East  Level FlightAware Approximate
Thu 04:40:00 AM 54.1013 -24.2194 90° East  Level FlightAware Approximate
Thu 04:41:00 AM 54.0994 -23.9672 91° East  Level FlightAware Approximate
Thu 04:42:00 AM 54.0970 -23.7151 91° East  Level FlightAware Approximate
Thu 04:43:00 AM 54.0940 -23.4630 91° East  Level FlightAware Approximate
Thu 04:44:00 AM 54.0905 -23.2110 91° East  Level FlightAware Approximate
Thu 04:45:00 AM 54.0865 -22.9590 91° East  Level FlightAware Approximate
Thu 04:46:00 AM 54.0820 -22.7071 92° East  Level FlightAware Approximate
Thu 04:47:00 AM 54.0770 -22.4552 92° East  Level FlightAware Approximate
Thu 04:48:00 AM 54.0714 -22.2034 92° East  Level FlightAware Approximate
Thu 04:49:00 AM 54.0653 -21.9516 92° East  Level FlightAware Approximate
Thu 04:50:00 AM 54.0586 -21.6999 92° East  Level FlightAware Approximate
Thu 04:51:00 AM 54.0515 -21.4484 93° East  Level FlightAware Approximate
Thu 04:52:00 AM 54.0438 -21.1969 93° East  Level FlightAware Approximate
Thu 04:53:00 AM 54.0360 -20.9566 93° East  Level FlightAware Approximate
Thu 04:54:00 AM 54.0277 -20.7165 93° East  Level FlightAware Approximate
Thu 04:55:00 AM 54.0189 -20.4765 93° East  Level FlightAware Approximate
Thu 04:56:00 AM 54.0096 -20.2366 94° East  Level FlightAware Approximate
Thu 04:57:00 AM 53.9998 -19.9968 96° East  Level FlightAware Approximate
Thu 04:58:00 AM 53.9856 -19.7578 96° East  Level FlightAware Approximate
Thu 04:59:00 AM 53.9708 -19.5189 96° East  Level FlightAware Approximate
Thu 05:00:00 AM 53.9556 -19.2801 96° East  Level FlightAware Approximate
Thu 05:01:00 AM 53.9400 -19.0415 96° East  Level FlightAware Approximate
Thu 05:02:00 AM 53.9238 -18.8032 96° East  Level FlightAware Approximate
Thu 05:03:00 AM 53.9072 -18.5650 97° East  Level FlightAware Approximate
Thu 05:04:00 AM 53.8901 -18.3270 97° East  Level FlightAware Approximate
Thu 05:05:00 AM 53.8726 -18.0892 97° East  Level FlightAware Approximate
Thu 05:06:00 AM 53.8545 -17.8516 97° East  Level FlightAware Approximate
Thu 05:07:00 AM 53.8360 -17.6142 97° East  Level FlightAware Approximate
Thu 05:08:00 AM 53.8171 -17.3770 98° East  Level FlightAware Approximate
Thu 05:09:00 AM 53.7976 -17.1401 98° East  Level FlightAware Approximate
Thu 05:10:00 AM 53.7777 -16.9033 98° East  Level FlightAware Approximate
Thu 05:11:00 AM 53.7574 -16.6668 98° East  Level FlightAware Approximate
Thu 05:12:00 AM 53.7365 -16.4305 98° East  Level FlightAware Approximate
Thu 05:13:00 AM 53.7152 -16.1945 99° East  Level FlightAware Approximate
Thu 05:14:00 AM 53.6935 -15.9586 99° East  Level FlightAware Approximate
Thu 05:14:57 AM 53.9340 -13.9540 99° East 529 609 33,000  Level FlightAware ADS-B
Thu 05:15:00 AM 53.6712 -15.7231 99° East  Level FlightAware Approximate
Thu 05:15:34 AM 53.9050 -13.7900 107° East 531 611 33,000  Level FlightAware ADS-B
Thu 05:16:19 AM 53.8750 -13.6100 106° East 529 609 33,100 319 Climbing FlightAware ADS-B
Thu 05:17:08 AM 53.8420 -13.4070 105° East 529 609 33,500 505 Climbing FlightAware ADS-B
Thu 05:17:54 AM 53.8120 -13.2320 106° East 533 613 33,900 533 Climbing FlightAware ADS-B
Thu 05:18:38 AM 53.7810 -13.0550 106° East 533 613 34,300 472 Climbing FlightAware ADS-B
Thu 05:19:23 AM 53.7500 -12.8760 106° East 533 613 34,600 424 Climbing FlightAware ADS-B
Thu 05:20:03 AM 53.7230 -12.7160 106° East 533 613 34,900 316 Climbing FlightAware ADS-B
Thu 05:20:58 AM 53.6830 -12.4890 106° East 534 615 35,100 63 Climbing FlightAware ADS-B
Thu 05:21:39 AM 53.6550 -12.3330 107° East 533 613 35,000 -71 Descending FlightAware ADS-B
Thu 05:22:23 AM 53.6230 -12.1500 106° East 532 612 35,000  Level FlightAware ADS-B
Thu 05:23:03 AM 53.5950 -11.9990 107° East 533 613 35,000  Level FlightAware ADS-B
Thu 05:23:44 AM 53.5650 -11.8320 107° East 533 613 35,000  Level FlightAware ADS-B
Thu 05:24:28 AM 53.5320 -11.6540 107° East 536 617 35,000  Level FlightAware ADS-B
Thu 05:25:38 AM 53.4800 -11.3790 108° East 538 619 35,000  Level FlightAware ADS-B
Thu 05:26:20 AM 53.4500 -11.2160 107° East 540 621 35,000  Level FlightAware ADS-B
Thu 05:26:58 AM 53.4200 -11.0570 108° East 540 621 35,000  Level FlightAware ADS-B
Thu 05:27:39 AM 53.3880 -10.8930 108° East 541 623 35,000  Level FlightAware ADS-B
Thu 05:28:29 AM 53.3500 -10.6940 108° East 539 620 35,000  Level FlightAware ADS-B
Thu 05:29:09 AM 53.3190 -10.5390 108° East 540 621 35,000  Level FlightAware ADS-B
Thu 05:29:49 AM 53.2880 -10.3770 108° East 539 620 35,000  Level FlightAware ADS-B
Thu 05:32:00 AM 53.2070 -9.8796 105° East  Level Estimated
Thu 05:33:00 AM 53.1692 -9.6524 105° East  Level Estimated
Thu 05:33:35 AM 53.1060 -9.4810 105° East 543 625 35,000  Level FlightAware ADS-B
Thu 05:34:15 AM 53.0740 -9.3280 109° East 542 624 35,000  Level FlightAware ADS-B
Thu 05:35:00 AM 53.0360 -9.1470 109° East 543 625 35,000  Level FlightAware ADS-B
Thu 05:35:40 AM 53.0030 -8.9900 109° East 543 625 35,000  Level FlightAware ADS-B
Thu 05:35:44 AM 52.9981 -8.9669 109° East 492 566 35,000  Level FlightAware UK
Thu 05:36:14 AM 52.9734 -8.8493 109° East 492 566 35,000  Level FlightAware UK
Thu 05:36:26 AM 52.9650 -8.8130 109° East 544 626 35,000  Level FlightAware ADS-B
Thu 05:37:06 AM 52.9310 -8.6560 110° East 542 624 35,000  Level FlightAware ADS-B
Thu 05:37:44 AM 52.8973 -8.4965 110° East 494 568 35,000  Level FlightAware UK
Thu 05:38:01 AM 52.8840 -8.4370 110° East 541 623 35,000  Level FlightAware ADS-B
Thu 05:38:41 AM 52.8490 -8.2810 110° East 541 623 35,000  Level FlightAware ADS-B
Thu 05:38:44 AM 52.8459 -8.2605 110° East 496 571 35,000  Level FlightAware UK
Thu 05:39:14 AM 52.8202 -8.1429 110° East 494 568 35,000  Level FlightAware UK
Thu 05:39:26 AM 52.8110 -8.1050 110° East 541 623 35,000  Level FlightAware ADS-B
Thu 05:40:14 AM 52.7679 -7.9092 110° East 492 566 35,000  Level FlightAware UK
Thu 05:40:44 AM 52.7418 -7.7929 110° East 492 566 35,000  Level FlightAware UK
Thu 05:41:20 AM 52.7102 -7.6532 110° East 492 566 35,000  Level FlightAware UK
Thu 05:41:50 AM 52.6841 -7.5367 110° East 492 566 35,000  Level FlightAware UK
Thu 05:42:20 AM 52.6576 -7.4205 111° Southeast 492 566 35,000  Level FlightAware UK
Thu 05:42:50 AM 52.6308 -7.3044 111° Southeast 494 568 35,000  Level FlightAware UK
Thu 05:43:20 AM 52.6040 -7.1885 111° Southeast 492 566 35,000  Level FlightAware UK
Thu 05:43:51 AM 52.5771 -7.0715 111° Southeast 492 566 35,000  Level FlightAware UK
Thu 05:43:52 AM 52.5760 -7.0730 111° Southeast 544 626 35,000  Level FlightAware ADS-B
Thu 05:44:36 AM 52.5370 -6.9040 111° Southeast 544 626 35,000  Level FlightAware ADS-B
Thu 05:45:14 AM 52.5020 -6.7580 111° Southeast 543 625 35,000  Level FlightAware ADS-B
Thu 05:45:51 AM 52.4684 -6.6104 111° Southeast 492 566 35,000  Level FlightAware UK
Thu 05:45:59 AM 52.4620 -6.5860 111° Southeast 543 625 35,000  Level FlightAware ADS-B
Thu 05:46:39 AM 52.4240 -6.4280 111° Southeast 543 625 35,000  Level FlightAware ADS-B
Thu 05:47:23 AM 52.3840 -6.2640 112° Southeast 542 624 35,000  Level FlightAware ADS-B
Thu 05:47:57 AM 52.3526 -6.1292 112° Southeast 492 566 35,000  Level FlightAware UK
Thu 05:48:07 AM 52.3430 -6.0930 112° Southeast 542 624 35,000  Level FlightAware ADS-B
Thu 05:48:41 AM 52.3120 -5.9640 111° Southeast 540 621 35,000  Level FlightAware ADS-B
Thu 05:49:15 AM 52.2800 -5.8360 112° Southeast 540 621 35,000  Level FlightAware ADS-B
Thu 05:49:59 AM 52.2380 -5.6700 112° Southeast 540 621 35,000  Level FlightAware ADS-B
Thu 05:50:33 AM 52.2058 -5.5400 112° Southeast 490 564 35,000  Level FlightAware UK
Thu 05:50:35 AM 52.2050 -5.5390 112° Southeast 540 621 35,000  Level FlightAware ADS-B
Thu 05:51:15 AM 52.1654 -5.3826 112° Southeast 488 562 35,000  Level FlightAware UK
Thu 05:51:24 AM 52.1580 -5.3550 112° Southeast 540 621 35,000  Level FlightAware ADS-B
Thu 05:52:07 AM 52.1150 -5.1900 113° Southeast 541 623 35,000  Level FlightAware ADS-B
Thu 05:52:41 AM 52.0820 -5.0670 113° Southeast 541 623 35,000  Level FlightAware ADS-B
Thu 05:52:45 AM 52.0779 -5.0451 113° Southeast 488 562 35,000  Level FlightAware UK
Thu 05:53:15 AM 52.0484 -4.9331 113° Southeast 488 562 35,000  Level FlightAware UK
Thu 05:53:29 AM 52.0350 -4.8840 113° Southeast 542 624 35,000  Level FlightAware ADS-B
Thu 05:54:13 AM 52.0040 -4.7140 106° East 535 616 35,000  Level FlightAware ADS-B
Thu 05:54:55 AM 51.9760 -4.5520 106° East 536 617 35,000  Level FlightAware ADS-B
Thu 05:55:33 AM 51.9500 -4.4050 106° East 538 619 35,000  Level FlightAware ADS-B
Thu 05:56:17 AM 51.9200 -4.2390 106° East 538 619 35,000  Level FlightAware ADS-B
Thu 05:57:01 AM 51.8880 -4.0660 107° East 538 619 35,000  Level FlightAware ADS-B
Thu 05:57:42 AM 51.8600 -3.9160 107° East 538 619 35,000  Level FlightAware ADS-B
Thu 05:58:25 AM 51.8270 -3.7470 107° East 537 618 35,000  Level FlightAware ADS-B
Thu 05:58:57 AM 51.8028 -3.6171 107° East 492 566 35,000  Level FlightAware UK
Thu 05:59:05 AM 51.7980 -3.5940 107° East 537 618 35,000  Level FlightAware ADS-B
Thu 05:59:41 AM 51.7706 -3.4525 107° East 537 618 35,000  Level FlightAware ADS-B
Thu 06:00:29 AM 51.7350 -3.2700 107° East 536 617 35,000  Level FlightAware ADS-B
Thu 06:00:55 AM 51.7158 -3.1709 107° East 535 616 35,000  Level FlightAware ADS-B
Thu 06:01:31 AM 51.6892 -3.0307 107° East 534 615 35,000  Level FlightAware ADS-B
Thu 06:02:04 AM 51.6654 -2.9092 107° East 533 613 35,000  Level FlightAware ADS-B
Thu 06:02:34 AM 51.6433 -2.7960 107° East 532 612 35,000  Level FlightAware ADS-B
Thu 06:03:11 AM 51.6162 -2.6567 107° East 532 612 35,000  Level FlightAware ADS-B
Thu 06:03:43 AM 51.5922 -2.5364 108° East 531 611 35,000  Level FlightAware ADS-B
Thu 06:04:13 AM 51.5698 -2.4202 107° East 530 610 35,000  Level FlightAware ADS-B
Thu 06:04:44 AM 51.5474 -2.3080 108° East 529 609 35,000  Level FlightAware ADS-B
Thu 06:05:15 AM 51.5236 -2.1923 108° East 528 608 35,000  Level FlightAware ADS-B
Thu 06:05:47 AM 51.4997 -2.0734 108° East 527 606 35,000  Level FlightAware ADS-B
Thu 06:06:18 AM 51.4764 -1.9586 108° East 526 605 35,000  Level FlightAware ADS-B
Thu 06:06:52 AM 51.4508 -1.8328 108° East 526 605 35,000  Level FlightAware ADS-B
Thu 06:07:24 AM 51.4266 -1.7144 108° East 526 605 35,000  Level FlightAware ADS-B
Thu 06:07:58 AM 51.4007 -1.5889 108° East 527 606 35,000  Level FlightAware ADS-B
Thu 06:08:29 AM 51.3764 -1.4745 109° East 527 606 35,000  Level FlightAware ADS-B
Thu 06:08:59 AM 51.3532 -1.3604 108° East 526 605 35,000  Level FlightAware ADS-B
Thu 06:09:25 AM 51.3333 -1.2684 109° East 526 605 35,000  Level FlightAware ADS-B
Thu 06:09:38 AM 51.3218 -1.2209 111° Southeast 532 612 35,000  Level FlightAware ADS-B
Thu 06:09:52 AM 51.3073 -1.1713 115° Southeast 536 617 35,000  Level FlightAware ADS-B
Thu 06:10:10 AM 51.2834 -1.1099 122° Southeast 543 625 35,000  Level FlightAware ADS-B
Thu 06:10:36 AM 51.2443 -1.0265 127° Southeast 549 632 35,000  Level FlightAware ADS-B
Thu 06:10:44 AM 51.2301 -1.0028 134° Southeast 554 638 35,000  Level FlightAware ADS-B
Thu 06:10:58 AM 51.2031 -0.9645 138° Southeast 556 640 35,000  Level FlightAware ADS-B
Thu 06:11:30 AM 51.1404 -0.8806 140° Southeast 558 642 35,000  Level FlightAware ADS-B
Thu 06:12:00 AM 51.0805 -0.8016 140° Southeast 558 642 35,000  Level FlightAware ADS-B
Thu 06:12:30 AM 51.0207 -0.7224 140° Southeast 558 642 35,000  Level FlightAware ADS-B
Thu 06:13:02 AM 50.9573 -0.6398 141° Southeast 559 643 35,000 97 Level FlightAware ADS-B
Thu 06:13:32 AM 50.8964 -0.5639 142° Southeast 559 643 35,100  Climbing FlightAware ADS-B
Thu 06:14:02 AM 50.8356 -0.4876 142° Southeast 559 643 35,000 -98 Descending FlightAware ADS-B
Thu 06:14:33 AM 50.7743 -0.4091 141° Southeast 557 641 35,000 97 Level FlightAware ADS-B
Thu 06:15:04 AM 50.7106 -0.3310 142° Southeast 556 640 35,100  Climbing FlightAware ADS-B
Thu 06:15:35 AM 50.6498 -0.2530 141° Southeast 554 638 35,000 -97 Descending FlightAware ADS-B
Thu 06:16:06 AM 50.5862 -0.1754 142° Southeast 553 636 35,000  Level FlightAware ADS-B
Thu 06:16:45 AM 50.5083 -0.0787 142° Southeast 551 634 35,000  Level FlightAware ADS-B
Thu 06:17:26 AM 50.4265 0.0224 142° Southeast 551 634 35,000  Level FlightAware ADS-B
Thu 06:18:10 AM 50.3400 0.1300 142° Southeast 549 632 35,000  Level FlightAware ADS-B
Thu 06:18:49 AM 50.2680 0.2180 142° Southeast 549 632 35,000  Level FlightAware ADS-B
Thu 06:19:35 AM 50.1850 0.3170 143° Southeast 548 631 35,000  Level FlightAware ADS-B
Thu 06:20:22 AM 50.0860 0.4350 143° Southeast 546 628 35,000  Level FlightAware ADS-B
Thu 06:20:30 AM 50.0581 0.4708 143° Southeast 492 566 35,000  Level FlightAware UK
Thu 06:21:00 AM 49.9981 0.5430 143° Southeast 490 564 35,000  Level FlightAware UK
Thu 06:21:10 AM 49.9950 0.5460 143° Southeast 542 624 35,000  Level FlightAware ADS-B
Thu 06:21:48 AM 49.9041 0.6586 143° Southeast 490 564 35,000  Level FlightAware UK
Thu 06:21:50 AM 49.9290 0.6280 143° Southeast 541 623 35,000  Level FlightAware ADS-B
Thu 06:22:30 AM 49.8420 0.7330 142° Southeast 534 615 35,000  Level FlightAware ADS-B
Thu 06:23:00 AM 49.7630 0.8310 142° Southeast 488 562 35,000  Level FlightAware UK
Thu 06:23:15 AM 49.7410 0.8550 142° Southeast 533 613 35,000  Level FlightAware ADS-B
Thu 06:23:55 AM 49.6690 0.9430 142° Southeast 539 620 35,000  Level FlightAware ADS-B
Thu 06:24:49 AM 49.5498 1.0874 142° Southeast 490 564 35,000  Level FlightAware UK
Thu 06:24:52 AM 49.5450 1.0940 142° Southeast 540 621 35,000  Level FlightAware ADS-B
Thu 06:25:37 AM 49.4553 1.2008 142° Southeast 490 564 35,000  Level FlightAware UK
Thu 06:26:13 AM 49.3939 1.2993 134° Southeast 490 564 35,000  Level FlightAware UK
Thu 06:26:19 AM 49.3850 1.3120 134° Southeast 533 613 35,000  Level FlightAware ADS-B
Thu 06:27:01 AM 49.3112 1.4293 134° Southeast 488 562 35,000  Level FlightAware UK
Thu 06:27:04 AM 49.3050 1.4370 134° Southeast 534 615 35,000  Level FlightAware ADS-B
Thu 06:27:43 AM 49.2388 1.5431 134° Southeast 488 562 35,000  Level FlightAware UK
Thu 06:27:45 AM 49.2390 1.5420 134° Southeast 536 617 35,000  Level FlightAware ADS-B
Thu 06:28:26 AM 49.1640 1.6590 134° Southeast 536 617 35,000  Level FlightAware ADS-B
Thu 06:29:04 AM 49.0980 1.7610 135° Southeast 536 617 35,000  Level FlightAware ADS-B
Thu 06:29:47 AM 49.0270 1.8720 134° Southeast 536 617 35,000  Level FlightAware ADS-B
Thu 06:30:37 AM 48.9212 1.9895 134° Southeast 490 564 35,000  Level FlightAware UK
Thu 06:31:13 AM 48.8437 2.0620 148° Southeast 490 564 35,000  Level FlightAware UK
Thu 06:31:43 AM 48.7799 2.1239 147° Southeast 492 566 35,000  Level FlightAware UK
Thu 06:32:19 AM 48.7044 2.1994 147° Southeast 490 564 35,000  Level FlightAware UK
Thu 06:32:41 AM 48.7000 2.2020 147° Southeast 544 626 35,000  Level FlightAware ADS-B
Thu 06:33:28 AM 48.5630 2.3400 146° Southeast 544 626 35,000  Level FlightAware ADS-B
Thu 06:34:08 AM 48.4770 2.4170 149° Southeast 545 627 35,000  Level FlightAware ADS-B
Thu 06:34:53 AM 48.3780 2.5070 149° Southeast 545 627 35,000  Level FlightAware ADS-B
Thu 06:35:28 AM 48.3060 2.5730 149° Southeast 544 626 35,000  Level FlightAware ADS-B
Thu 06:36:08 AM 48.2160 2.6470 151° Southeast 538 619 35,000  Level FlightAware ADS-B
Thu 06:37:13 AM 48.0720 2.7480 155° Southeast 546 628 35,000  Level FlightAware ADS-B
Thu 06:37:54 AM 47.9680 2.8160 156° South 546 628 35,000  Level FlightAware ADS-B
Thu 06:38:33 AM 47.8810 2.8730 156° South 545 627 35,000  Level FlightAware ADS-B
Thu 06:39:16 AM 47.7810 2.9400 156° South 544 626 35,000  Level FlightAware ADS-B
Thu 06:39:53 AM 47.6960 2.9940 157° South 544 626 35,000  Level FlightAware ADS-B
Thu 06:40:39 AM 47.5900 3.0650 156° South 545 627 35,000  Level FlightAware ADS-B
Thu 06:41:23 AM 47.4890 3.1290 157° South 544 626 35,000  Level FlightAware ADS-B
Thu 06:42:03 AM 47.3980 3.1890 156° South 544 626 35,000  Level FlightAware ADS-B
Thu 06:42:48 AM 47.2930 3.2580 156° South 544 626 35,000  Level FlightAware ADS-B
Thu 06:43:24 AM 47.2090 3.3110 157° South 544 626 35,000  Level FlightAware ADS-B
Thu 06:44:09 AM 47.1070 3.3760 157° South 543 625 35,000  Level FlightAware ADS-B
Thu 06:44:51 AM 47.0150 3.4400 155° Southeast 540 621 35,000  Level FlightAware ADS-B
Thu 06:47:00 AM 46.9065 3.8556 111° Southeast  Level Estimated
Thu 06:48:00 AM 46.8555 4.0484 111° Southeast  Level Estimated
Thu 06:48:08 AM 46.7820 4.0240 111° Southeast 522 601 35,000  Level FlightAware ADS-B
Thu 06:48:50 AM 46.7360 4.1750 114° Southeast 523 602 35,000  Level FlightAware ADS-B
Thu 06:49:26 AM 46.7010 4.2880 114° Southeast 524 603 35,000  Level FlightAware ADS-B
Thu 06:50:12 AM 46.6560 4.4360 114° Southeast 525 604 35,000  Level FlightAware ADS-B
Thu 06:51:52 AM 46.5830 4.7660 111° Southeast 523 602 35,000  Level FlightAware ADS-B
Thu 06:52:00 AM 46.5630 4.7805 111° Southeast  Level Estimated
Thu 06:52:32 AM 46.5550 4.9050 106° East 526 605 35,000  Level FlightAware ADS-B
Thu 06:53:16 AM 46.5250 5.0530 106° East 521 600 35,000  Level FlightAware ADS-B
Thu 06:53:54 AM 46.5110 5.1870 99° East 517 595 35,000  Level FlightAware ADS-B
Thu 06:54:40 AM 46.4950 5.3420 98° East 517 595 35,000  Level FlightAware ADS-B
Thu 06:55:22 AM 46.4810 5.4860 98° East 517 595 35,000  Level FlightAware ADS-B
Thu 06:56:02 AM 46.4530 5.6230 106° East 526 605 35,000  Level FlightAware ADS-B
Thu 06:56:46 AM 46.4160 5.7680 110° East 525 604 35,000  Level FlightAware ADS-B
Thu 06:57:22 AM 46.3890 5.8810 109° East 524 603 35,000  Level FlightAware ADS-B
Thu 06:58:08 AM 46.3560 6.0280 108° East 524 603 35,000  Level FlightAware ADS-B
Thu 06:58:51 AM 46.3250 6.1680 108° East 524 603 35,000  Level FlightAware ADS-B
Thu 06:59:31 AM 46.2920 6.3140 108° East 523 602 35,000  Level FlightAware ADS-B
Thu 07:00:16 AM 46.2580 6.4630 108° East 521 600 35,000  Level FlightAware ADS-B
Thu 07:01:01 AM 46.2270 6.6050 107° East 519 597 35,000  Level FlightAware ADS-B
Thu 07:01:43 AM 46.1950 6.7430 108° East 519 597 35,000  Level FlightAware ADS-B
Thu 07:02:22 AM 46.1640 6.8810 108° East 520 598 35,000  Level FlightAware ADS-B
Thu 07:03:04 AM 46.1330 7.0130 109° East 520 598 35,000  Level FlightAware ADS-B
Thu 07:03:46 AM 46.1010 7.1530 108° East 519 597 35,000  Level FlightAware ADS-B
Thu 07:04:28 AM 46.0680 7.2940 109° East 517 595 35,000  Level FlightAware ADS-B
Thu 07:05:18 AM 46.0300 7.4530 109° East 515 593 35,000  Level FlightAware ADS-B
Thu 07:06:08 AM 45.9910 7.6180 109° East 514 592 35,000  Level FlightAware ADS-B
Thu 07:06:32 AM 45.9740 7.6890 109° East 513 590 35,000  Level FlightAware ADS-B
Thu 07:07:29 AM 45.9220 7.8650 113° Southeast 513 590 35,000  Level FlightAware ADS-B
Thu 07:08:09 AM 45.8710 7.9840 122° Southeast 508 585 35,000  Level FlightAware ADS-B
Thu 07:08:54 AM 45.8150 8.1170 121° Southeast 514 592 35,000  Level FlightAware ADS-B
Thu 07:09:39 AM 45.7590 8.2440 122° Southeast 518 596 35,000  Level FlightAware ADS-B
Thu 07:10:29 AM 45.6930 8.3920 123° Southeast 521 600 35,000  Level FlightAware ADS-B
Thu 07:11:09 AM 45.6430 8.5060 122° Southeast 517 595 35,000  Level FlightAware ADS-B
Thu 07:11:53 AM 45.5890 8.6250 123° Southeast 518 596 35,000  Level FlightAware ADS-B
Thu 07:12:35 AM 45.5280 8.7610 123° Southeast 523 602 35,000  Level FlightAware ADS-B
Thu 07:13:18 AM 45.4770 8.8730 123° Southeast 519 597 35,000  Level FlightAware ADS-B
Thu 07:14:03 AM 45.4150 9.0100 123° Southeast 520 598 35,000  Level FlightAware ADS-B
Thu 07:14:53 AM 45.3480 9.1580 123° Southeast 519 597 35,000  Level FlightAware ADS-B
Thu 07:15:38 AM 45.2940 9.2760 123° Southeast 518 596 35,000  Level FlightAware ADS-B
Thu 07:16:23 AM 45.2320 9.4110 123° Southeast 518 596 35,000  Level FlightAware ADS-B
Thu 07:17:04 AM 45.1810 9.5230 123° Southeast 516 594 35,000  Level FlightAware ADS-B
Thu 07:17:44 AM 45.1250 9.6460 123° Southeast 516 594 35,000  Level FlightAware ADS-B
Thu 07:18:29 AM 45.0670 9.7710 123° Southeast 516 594 35,000  Level FlightAware ADS-B
Thu 07:19:09 AM 45.0130 9.8850 124° Southeast 516 594 35,000  Level FlightAware ADS-B
Thu 07:19:50 AM 44.9580 10.0040 123° Southeast 514 592 35,000  Level FlightAware ADS-B
Thu 07:20:34 AM 44.9000 10.1280 123° Southeast 514 592 35,000  Level FlightAware ADS-B
Thu 07:21:10 AM 44.8540 10.2240 124° Southeast 517 595 35,000  Level FlightAware ADS-B
Thu 07:22:00 AM 44.7760 10.3630 128° Southeast 515 593 35,000  Level FlightAware ADS-B
Thu 07:22:39 AM 44.7140 10.4590 132° Southeast 513 590 35,000  Level FlightAware ADS-B
Thu 07:23:23 AM 44.6420 10.5690 133° Southeast 513 590 35,000  Level FlightAware ADS-B
Thu 07:24:03 AM 44.5770 10.6660 133° Southeast 511 588 35,000  Level FlightAware ADS-B
Thu 07:24:47 AM 44.5060 10.7730 133° Southeast 510 587 35,000  Level FlightAware ADS-B
Thu 07:25:31 AM 44.4360 10.8760 134° Southeast 508 585 35,000  Level FlightAware ADS-B
Thu 07:26:11 AM 44.3700 10.9750 133° Southeast 509 586 35,000  Level FlightAware ADS-B
Thu 07:26:48 AM 44.3130 11.0610 133° Southeast 509 586 35,000  Level FlightAware ADS-B
Thu 07:27:34 AM 44.2400 11.1710 133° Southeast 508 585 35,000  Level FlightAware ADS-B
Thu 07:28:16 AM 44.1700 11.2730 134° Southeast 507 583 35,000  Level FlightAware ADS-B
Thu 07:29:00 AM 44.0990 11.3780 133° Southeast 508 585 35,000  Level FlightAware ADS-B
Thu 07:29:41 AM 44.0340 11.4730 134° Southeast 507 583 35,000  Level FlightAware ADS-B
Thu 07:32:00 AM 43.8915 11.8875 115° Southeast  Level Estimated
Thu 07:32:36 AM 43.7700 11.8560 115° Southeast 507 583 35,000  Level FlightAware ADS-B
Thu 07:33:20 AM 43.6820 11.9850 133° Southeast 505 581 35,000  Level FlightAware ADS-B
Thu 07:33:58 AM 43.6240 12.0660 135° Southeast 507 583 35,000  Level FlightAware ADS-B
Thu 07:34:43 AM 43.5480 12.1760 134° Southeast 507 583 35,000  Level FlightAware ADS-B
Thu 07:35:22 AM 43.4820 12.2710 134° Southeast 507 583 35,000  Level FlightAware ADS-B
Thu 07:36:07 AM 43.4100 12.3730 134° Southeast 506 582 35,000  Level FlightAware ADS-B
Thu 07:36:51 AM 43.3360 12.4760 135° Southeast 507 583 35,000  Level FlightAware ADS-B
Thu 07:37:31 AM 43.2710 12.5690 134° Southeast 508 585 35,000  Level FlightAware ADS-B
Thu 07:38:13 AM 43.2100 12.6570 134° Southeast 510 587 35,000  Level FlightAware ADS-B
Thu 07:38:57 AM 43.1320 12.7660 134° Southeast 511 588 35,000  Level FlightAware ADS-B
Thu 07:39:38 AM 43.0650 12.8590 135° Southeast 512 589 35,000  Level FlightAware ADS-B
Thu 07:40:43 AM 42.9720 13.0260 127° Southeast 514 592 35,000  Level FlightAware ADS-B
Thu 07:41:28 AM 42.9090 13.1350 128° Southeast 513 590 35,000  Level FlightAware ADS-B
Thu 07:42:08 AM 42.8470 13.2460 127° Southeast 514 592 35,000  Level FlightAware ADS-B
Thu 07:44:00 AM 42.7329 13.5741 115° Southeast  Level Estimated
Thu 07:44:18 AM 42.6590 13.5780 115° Southeast 517 595 35,000  Level FlightAware ADS-B
Thu 07:44:58 AM 42.6000 13.6800 128° Southeast 517 595 35,000  Level FlightAware ADS-B
Thu 07:45:42 AM 42.5330 13.7980 128° Southeast 518 596 35,000  Level FlightAware ADS-B
Thu 07:46:23 AM 42.4750 13.9010 127° Southeast 518 596 35,000  Level FlightAware ADS-B
Thu 07:47:08 AM 42.4090 14.0140 128° Southeast 518 596 35,000  Level FlightAware ADS-B
Thu 07:47:52 AM 42.3420 14.1310 128° Southeast 517 595 35,000  Level FlightAware ADS-B
Thu 07:48:33 AM 42.2830 14.2330 128° Southeast 518 596 35,000  Level FlightAware ADS-B
Thu 07:49:17 AM 42.2210 14.3390 128° Southeast 517 595 35,000  Level FlightAware ADS-B
Thu 07:50:33 AM 42.1090 14.5320 128° Southeast 516 594 35,000  Level FlightAware ADS-B
Thu 07:51:23 AM 42.0290 14.6680 128° Southeast 515 593 35,000  Level FlightAware ADS-B
Thu 07:52:01 AM 41.9740 14.7630 128° Southeast 514 592 35,000  Level FlightAware ADS-B
Thu 07:52:44 AM 41.9110 14.8680 129° Southeast 513 590 35,000  Level FlightAware ADS-B
Thu 07:53:25 AM 41.8520 14.9680 128° Southeast 513 590 35,000  Level FlightAware ADS-B
Thu 07:54:07 AM 41.7870 15.0770 129° Southeast 515 593 35,000  Level FlightAware ADS-B
Thu 07:54:53 AM 41.7200 15.1900 128° Southeast 515 593 35,000 122 Level FlightAware ADS-B
Thu 07:55:45 AM 41.6410 15.3210 129° Southeast 518 596 35,200 522 Climbing FlightAware ADS-B
Thu 07:56:25 AM 41.5820 15.4220 128° Southeast 524 603 35,800 1,000 Climbing FlightAware ADS-B
Thu 07:57:09 AM 41.5140 15.5310 130° Southeast 527 606 36,600 886 Climbing FlightAware ADS-B
Thu 07:57:53 AM 41.4470 15.6420 129° Southeast 530 610 37,100 279 Climbing FlightAware ADS-B
Thu 07:58:35 AM 41.3810 15.7510 129° Southeast 526 605 37,000 -71 Descending FlightAware ADS-B
Thu 07:59:17 AM 41.3170 15.8560 129° Southeast 525 604 37,000  Level FlightAware ADS-B
Thu 07:59:54 AM 41.2630 15.9460 129° Southeast 524 603 37,000  Level FlightAware ADS-B
Thu 08:02:00 AM 41.1339 16.3055 115° Southeast  Level Estimated
Thu 08:02:53 AM 41.0050 16.3640 116° Southeast 521 600 37,000  Level FlightAware ADS-B
Thu 08:03:00 AM 41.0721 16.4762 116° Southeast  Level Estimated
Thu 08:03:39 AM 40.9150 16.5060 130° Southeast 518 596 37,000  Level FlightAware ADS-B
Thu 08:04:21 AM 40.8520 16.6080 129° Southeast 518 596 37,000  Level FlightAware ADS-B
Thu 08:05:03 AM 40.7880 16.7100 130° Southeast 518 596 37,000  Level FlightAware ADS-B
Thu 08:05:39 AM 40.7320 16.7980 130° Southeast 518 596 37,000  Level FlightAware ADS-B
Thu 08:06:22 AM 40.6700 16.8980 129° Southeast 517 595 37,000  Level FlightAware ADS-B
Thu 08:07:09 AM 40.5950 17.0160 130° Southeast 515 593 37,000  Level FlightAware ADS-B
Thu 08:07:51 AM 40.5300 17.1170 130° Southeast 514 592 37,000  Level FlightAware ADS-B
Thu 08:08:33 AM 40.4660 17.2170 130° Southeast 513 590 37,000  Level FlightAware ADS-B
Thu 08:09:15 AM 40.4020 17.3170 130° Southeast 512 589 37,000  Level FlightAware ADS-B
Thu 08:09:51 AM 40.3480 17.4030 129° Southeast 512 589 37,000  Level FlightAware ADS-B
Thu 08:10:51 AM 40.2550 17.5450 131° Southeast 513 590 37,000  Level FlightAware ADS-B
Thu 08:11:33 AM 40.1920 17.6430 130° Southeast 515 593 37,000  Level FlightAware ADS-B
Thu 08:12:18 AM 40.1230 17.7490 130° Southeast 513 590 37,000  Level FlightAware ADS-B
Thu 08:12:57 AM 40.0620 17.8420 131° Southeast 515 593 37,000  Level FlightAware ADS-B
Thu 08:13:41 AM 39.9940 17.9480 130° Southeast 517 595 37,000  Level FlightAware ADS-B
Thu 08:14:43 AM 39.8990 18.0910 131° Southeast 518 596 37,000  Level FlightAware ADS-B
Thu 08:17:00 AM 39.7607 18.4753 115° Southeast  Level Estimated
Thu 08:18:00 AM 39.6998 18.6431 115° Southeast  Level Estimated
Thu 08:18:53 AM 39.5220 18.6700 115° Southeast 523 602 37,000  Level FlightAware ADS-B
Thu 08:19:00 AM 39.6386 18.8106 115° Southeast  Level Estimated
Thu 08:19:39 AM 39.4440 18.8140 125° Southeast 528 608 37,000  Level FlightAware ADS-B
Thu 08:20:22 AM 39.3950 18.9040 125° Southeast 529 609 37,000  Level FlightAware ADS-B
Thu 08:21:56 AM 39.2640 19.1350 126° Southeast 527 606 37,000  Level FlightAware ADS-B
Thu 08:22:58 AM 39.1820 19.2840 125° Southeast 527 606 37,000  Level FlightAware ADS-B
Thu 08:23:49 AM 39.1110 19.4110 126° Southeast 527 606 37,000  Level FlightAware ADS-B
Thu 08:24:59 AM 39.0080 19.5930 126° Southeast 527 606 37,000  Level FlightAware ADS-B
Thu 08:25:44 AM 38.9470 19.7040 125° Southeast 527 606 37,000  Level FlightAware ADS-B
Thu 08:26:30 AM 38.8760 19.8310 126° Southeast 527 606 37,000  Level FlightAware ADS-B
Thu 08:27:07 AM 38.8250 19.9180 127° Southeast 527 606 37,000  Level FlightAware ADS-B
Thu 08:27:51 AM 38.7670 20.0220 126° Southeast 518 596 37,000  Level FlightAware ADS-B
Thu 08:28:30 AM 38.7090 20.1240 126° Southeast 516 594 37,000  Level FlightAware ADS-B
Thu 08:29:29 AM 38.6100 20.2970 126° Southeast 517 595 37,000  Level FlightAware ADS-B
Thu 08:29:54 AM 38.5750 20.3580 126° Southeast 517 595 37,000  Level FlightAware ADS-B
Thu 08:32:00 AM 38.4496 20.7059 115° Southeast  Level Estimated
Thu 08:32:59 AM 38.3140 20.8100 115° Southeast 509 586 37,000  Level FlightAware ADS-B
Thu 08:33:00 AM 38.3895 20.8712 115° Southeast  Level Estimated
Thu 08:33:39 AM 38.2590 20.9040 127° Southeast 509 586 37,000  Level FlightAware ADS-B
Thu 08:34:24 AM 38.1950 21.0140 126° Southeast 509 586 37,000  Level FlightAware ADS-B
Thu 08:35:59 AM 38.0620 21.2420 126° Southeast 510 587 37,000  Level FlightAware ADS-B
Thu 08:36:44 AM 37.9980 21.3490 127° Southeast 512 589 37,000  Level FlightAware ADS-B
Thu 08:37:29 AM 37.9350 21.4570 126° Southeast 514 592 37,000  Level FlightAware ADS-B
Thu 08:38:09 AM 37.8780 21.5510 128° Southeast 516 594 37,000  Level FlightAware ADS-B
Thu 08:39:04 AM 37.8000 21.6830 127° Southeast 519 597 37,000  Level FlightAware ADS-B
Thu 08:39:44 AM 37.7420 21.7800 127° Southeast 520 598 37,000  Level FlightAware ADS-B
Thu 08:40:29 AM 37.6790 21.8840 127° Southeast 521 600 37,000  Level FlightAware ADS-B
Thu 08:41:14 AM 37.6100 22.0000 127° Southeast 519 597 37,000  Level FlightAware ADS-B
Thu 08:41:56 AM 37.5510 22.0980 127° Southeast 518 596 37,000  Level FlightAware ADS-B
Thu 08:42:32 AM 37.4980 22.1850 128° Southeast 520 598 37,000  Level FlightAware ADS-B
Thu 08:43:18 AM 37.4290 22.2990 127° Southeast 523 602 37,000  Level FlightAware ADS-B
Thu 08:43:54 AM 37.3920 22.3670 124° Southeast 523 602 37,000  Level FlightAware ADS-B
Thu 08:44:55 AM 37.3380 22.5610 109° East 539 620 37,000  Level FlightAware ADS-B
Thu 08:45:38 AM 37.2990 22.6970 110° East 541 623 37,000  Level FlightAware ADS-B
Thu 08:46:16 AM 37.2660 22.8120 110° East 540 621 37,000 75 Level FlightAware ADS-B
Thu 08:46:58 AM 37.2300 22.9350 110° East 538 619 37,100  Climbing FlightAware ADS-B
Thu 08:47:42 AM 37.1930 23.0600 110° East 536 617 37,000 -71 Descending FlightAware ADS-B
Thu 08:48:22 AM 37.1560 23.1830 111° Southeast 534 615 37,000  Level FlightAware ADS-B
Thu 08:49:06 AM 37.1180 23.3100 111° Southeast 531 611 37,000  Level FlightAware ADS-B
Thu 08:49:50 AM 37.0810 23.4360 110° East 528 608 37,000  Level FlightAware ADS-B
Thu 08:50:31 AM 37.0480 23.5440 111° Southeast 528 608 37,000  Level FlightAware ADS-B
Thu 08:51:14 AM 37.0080 23.6730 111° Southeast 527 606 37,000  Level FlightAware ADS-B
Thu 08:51:52 AM 36.9760 23.7810 110° East 528 608 37,000  Level FlightAware ADS-B
Thu 08:52:40 AM 36.9340 23.9180 111° Southeast 530 610 37,000  Level FlightAware ADS-B
Thu 08:53:16 AM 36.9020 24.0210 111° Southeast 532 612 37,000  Level FlightAware ADS-B
Thu 08:54:00 AM 36.8630 24.1480 111° Southeast 533 613 37,000  Level FlightAware ADS-B
Thu 08:54:44 AM 36.8230 24.2770 111° Southeast 535 616 37,000  Level FlightAware ADS-B
Thu 08:55:21 AM 36.7900 24.3830 111° Southeast 535 616 37,000  Level FlightAware ADS-B
Thu 08:56:09 AM 36.7510 24.5240 109° East 544 626 37,000  Level FlightAware ADS-B
Thu 08:56:49 AM 36.7360 24.6500 98° East 552 635 37,000  Level FlightAware ADS-B
Thu 08:57:32 AM 36.7220 24.7820 97° East 551 634 37,000  Level FlightAware ADS-B
Thu 08:58:15 AM 36.7070 24.9200 98° East 551 634 37,000  Level FlightAware ADS-B
Thu 08:58:53 AM 36.6940 25.0400 98° East 553 636 37,000  Level FlightAware ADS-B
Thu 08:59:39 AM 36.6790 25.1860 97° East 555 639 37,000  Level FlightAware ADS-B
Thu 09:00:47 AM 36.6530 25.4000 99° East 554 638 37,000  Level FlightAware ADS-B
Thu 09:01:25 AM 36.6400 25.5170 98° East 557 641 37,000  Level FlightAware ADS-B
Thu 09:02:13 AM 36.6240 25.6730 97° East 557 641 37,000  Level FlightAware ADS-B
Thu 09:02:55 AM 36.6110 25.8060 97° East 557 641 37,000  Level FlightAware ADS-B
Thu 09:03:19 AM 36.6030 25.8830 97° East 557 641 37,000  Level FlightAware ADS-B
Thu 09:04:05 AM 36.5880 26.0290 97° East 557 641 37,000  Level FlightAware ADS-B
Thu 09:04:45 AM 36.5740 26.1560 98° East 556 640 37,000  Level FlightAware ADS-B
Thu 09:05:23 AM 36.5610 26.2730 98° East 555 639 37,000  Level FlightAware ADS-B
Thu 09:06:07 AM 36.5450 26.4110 98° East 552 635 37,000  Level FlightAware ADS-B
Thu 09:06:53 AM 36.5280 26.5580 98° East 549 632 37,000  Level FlightAware ADS-B
Thu 09:07:35 AM 36.5130 26.6890 98° East 547 629 37,000  Level FlightAware ADS-B
Thu 09:08:15 AM 36.4980 26.8130 99° East 545 627 37,000  Level FlightAware ADS-B
Thu 09:08:55 AM 36.4830 26.9370 99° East 545 627 37,000  Level FlightAware ADS-B
Thu 09:09:47 AM 36.4660 27.0830 98° East 545 627 37,000  Level FlightAware ADS-B
Thu 09:10:34 AM 36.4460 27.2430 99° East 545 627 37,000  Level FlightAware ADS-B
Thu 09:11:16 AM 36.4300 27.3730 99° East 545 627 37,000  Level FlightAware ADS-B
Thu 09:11:56 AM 36.4150 27.4930 99° East 546 628 37,000  Level FlightAware ADS-B
Thu 09:12:36 AM 36.4000 27.6140 99° East 547 629 37,000  Level FlightAware ADS-B
Thu 09:13:22 AM 36.3810 27.7630 99° East 547 629 37,000  Level FlightAware ADS-B
Thu 09:14:20 AM 36.3580 27.9430 99° East 547 629 37,000  Level FlightAware ADS-B
Thu 09:15:47 AM 36.2910 28.1820 109° East 527 606 37,000  Level FlightAware ADS-B
Thu 09:16:26 AM 36.2250 28.2810 130° Southeast 518 596 37,000  Level FlightAware ADS-B
Thu 09:17:02 AM 36.1740 28.3670 126° Southeast 516 594 37,000  Level FlightAware ADS-B
Thu 09:17:50 AM 36.1070 28.4820 126° Southeast 516 594 37,000  Level FlightAware ADS-B
Thu 09:18:28 AM 36.0540 28.5730 126° Southeast 516 594 37,000  Level FlightAware ADS-B
Thu 09:19:12 AM 35.9940 28.6750 126° Southeast 515 593 37,000  Level FlightAware ADS-B
Thu 09:19:52 AM 35.9370 28.7710 126° Southeast 514 592 37,000  Level FlightAware ADS-B
Thu 09:20:38 AM 35.8720 28.8820 126° Southeast 514 592 37,000  Level FlightAware ADS-B
Thu 09:21:29 AM 35.8000 29.0030 126° Southeast 509 586 37,000  Level FlightAware ADS-B
Thu 09:22:10 AM 35.7450 29.0970 126° Southeast 514 592 37,000  Level FlightAware ADS-B
Thu 09:24:00 AM 35.5776 29.3439 130° Southeast  Level FlightAware Approximate
Thu 09:24:11 AM 35.5820 29.3680 130° Southeast 514 592 37,000  Level FlightAware ADS-B
Thu 09:24:49 AM 35.5260 29.4620 126° Southeast 514 592 37,000  Level FlightAware ADS-B
Thu 09:25:29 AM 35.4640 29.5660 126° Southeast 514 592 37,000  Level FlightAware ADS-B
Thu 09:26:14 AM 35.3990 29.6710 127° Southeast 515 593 37,000  Level FlightAware ADS-B
Thu 09:26:55 AM 35.3410 29.7670 127° Southeast 515 593 37,000 -349 Level FlightAware ADS-B
Thu 09:27:40 AM 35.2780 29.8700 127° Southeast 514 592 36,500 -947 Descending FlightAware ADS-B
Thu 09:28:30 AM 35.2130 29.9770 127° Southeast 515 593 35,500 -687 Descending FlightAware ADS-B
Thu 09:29:51 AM 35.0910 30.1750 127° Southeast 515 593 35,000 -219 Descending FlightAware ADS-B
Thu 09:30:47 AM 35.0110 30.3030 127° Southeast 511 588 35,000  Level FlightAware ADS-B
Thu 09:31:32 AM 34.9450 30.4100 127° Southeast 512 589 35,000  Level FlightAware ADS-B
Thu 09:32:18 AM 34.8800 30.5140 127° Southeast 513 590 35,000  Level FlightAware ADS-B
Thu 09:32:58 AM 34.8200 30.6110 127° Southeast 513 590 35,000  Level FlightAware ADS-B
Thu 09:33:44 AM 34.7540 30.7160 127° Southeast 512 589 35,000  Level FlightAware ADS-B
Thu 09:34:18 AM 34.7040 30.7940 128° Southeast 513 590 35,000  Level FlightAware ADS-B
Thu 09:34:59 AM 34.6450 30.8890 127° Southeast 512 589 35,000  Level FlightAware ADS-B
Thu 09:35:44 AM 34.5820 30.9880 128° Southeast 513 590 35,000  Level FlightAware ADS-B
Thu 09:36:14 AM 34.5350 31.0620 128° Southeast 513 590 35,000  Level FlightAware ADS-B
Thu 09:36:58 AM 34.4710 31.1630 128° Southeast 513 590 35,000  Level FlightAware ADS-B
Thu 09:37:38 AM 34.4110 31.2570 128° Southeast 510 587 35,000  Level FlightAware ADS-B
Thu 09:38:23 AM 34.3470 31.3580 127° Southeast 509 586 35,000  Level FlightAware ADS-B
Thu 09:39:05 AM 34.2870 31.4530 127° Southeast 509 586 35,000  Level FlightAware ADS-B
Thu 09:39:46 AM 34.2270 31.5460 128° Southeast 509 586 35,000  Level FlightAware ADS-B
Thu 09:40:25 AM 34.1690 31.6360 128° Southeast 509 586 35,000  Level FlightAware ADS-B
Thu 09:41:06 AM 34.1100 31.7270 128° Southeast 508 585 35,000  Level FlightAware ADS-B
Thu 09:41:51 AM 34.0430 31.8310 128° Southeast 508 585 35,000  Level FlightAware ADS-B
Thu 09:42:32 AM 33.9840 31.9210 128° Southeast 508 585 35,000  Level FlightAware ADS-B
Thu 09:43:28 AM 33.9010 32.0490 128° Southeast 508 585 35,000  Level FlightAware ADS-B
Thu 09:44:23 AM 33.8210 32.1700 128° Southeast 508 585 35,000  Level FlightAware ADS-B
Thu 09:45:18 AM 33.7400 32.2960 128° Southeast 508 585 35,000  Level FlightAware ADS-B
Thu 09:46:03 AM 33.6730 32.3970 129° Southeast 509 586 35,000  Level FlightAware ADS-B
Thu 09:46:38 AM 33.6230 32.4730 128° Southeast 508 585 35,000  Level FlightAware ADS-B
Thu 09:47:24 AM 33.5530 32.5780 129° Southeast 513 590 35,000 -336 Level FlightAware ADS-B
Thu 09:48:25 AM 33.4670 32.7090 128° Southeast 499 574 34,400 -895 Descending FlightAware ADS-B
Thu 09:49:18 AM 33.3880 32.8270 129° Southeast 493 567 33,300 -1,200 Descending FlightAware ADS-B
Thu 09:50:00 AM 33.3310 32.9140 128° Southeast 478 550 32,500 -1,229 Descending FlightAware ADS-B
Thu 09:50:41 AM 33.2750 32.9970 129° Southeast 471 542 31,600 -1,326 Descending FlightAware ADS-B
Thu 09:51:26 AM 33.2120 33.0930 128° Southeast 472 543 30,600 -882 Descending FlightAware ADS-B
Thu 09:52:23 AM 33.1450 33.1920 129° Southeast 466 536 30,100 -1,625 Descending FlightAware ADS-B
Thu 09:53:02 AM 33.0810 33.2860 129° Southeast 455 524 28,000 -2,692 Descending FlightAware ADS-B
Thu 09:53:41 AM 33.0320 33.3600 128° Southeast 444 511 26,600 -2,118 Descending FlightAware ADS-B
Thu 09:54:27 AM 32.9730 33.4460 129° Southeast 433 498 25,000 -2,114 Descending FlightAware ADS-B
Thu 09:55:09 AM 32.9190 33.5250 129° Southeast 423 487 23,500 -2,602 Descending FlightAware ADS-B
Thu 09:55:50 AM 32.8710 33.5960 129° Southeast 434 499 21,400 -2,819 Descending FlightAware ADS-B
Thu 09:56:32 AM 32.8170 33.6760 129° Southeast 430 495 19,600 -2,415 Descending FlightAware ADS-B
Thu 09:57:12 AM 32.7660 33.7500 129° Southeast 420 483 18,100 -2,143 Descending FlightAware ADS-B
Thu 09:58:10 AM 32.6980 33.8510 129° Southeast 406 467 16,100 -2,100 Descending FlightAware ADS-B
Thu 09:58:52 AM 32.6480 33.9240 129° Southeast 395 455 14,600 -2,122 Descending FlightAware ADS-B
Thu 09:59:32 AM 32.6020 33.9910 129° Southeast 386 444 13,200 -1,958 Descending FlightAware ADS-B
Thu 10:00:27 AM 32.5420 34.0780 129° Southeast 371 427 11,500 -1,898 Descending FlightAware ADS-B
Thu 10:01:10 AM 32.4950 34.1460 129° Southeast 359 413 10,100 -1,658 Descending FlightAware ADS-B
Thu 10:01:43 AM 32.4580 34.1930 133° Southeast 345 397 9,400 -1,149 Descending FlightAware ADS-B
Thu 10:01:57 AM 32.4420 34.2110 136° Southeast 335 386 9,200 -316 Descending FlightAware ADS-B
Thu 10:02:40 AM 32.4020 34.2580 135° Southeast 333 383 9,100 -88 Descending FlightAware ADS-B
Thu 10:03:05 AM 32.3790 34.2850 135° Southeast 333 383 9,100  Level FlightAware ADS-B
Thu 10:03:31 AM 32.3550 34.3140 134° Southeast 333 383 9,100  Level FlightAware ADS-B
Thu 10:03:43 AM 32.3440 34.3270 135° Southeast 333 383 9,100  Level FlightAware ADS-B
Thu 10:06:00 AM 32.1490 34.6350 125° Southeast  Level FlightAware Approximate
Thu 10:07:00 AM 32.0667 34.7723 125° Southeast  Level FlightAware Approximate
Thu 10:08:00 AM 32.0000 34.8667 North  Level FlightAware Approximate
Thu 10:09:00 AM 32.0095 34.8769 North  Level Estimated
Thu 10:10:00 AM 32.0095 34.8769 North  Level Estimated
Thu 10:11:00 AM 32.0095 34.8769 North  Level Estimated
Thu 10:12:00 AM 32.0095 34.8769 North  Level Estimated
Thu 10:13:00 AM 32.0095 34.8769 North  Level Estimated
Thu 10:14:00 AM 32.0095 34.8769 North  Level Estimated
Thu 10:15:00 AM 32.0095 34.8769 North  Level Estimated
Thu 10:16:00 AM 32.0095 34.8769 North  Level Estimated

Login

Don't have an account? Register now (free) for customized features, flight alerts, and more!